Seagoville's Hourly Summary for Friday, April 14, 2017
Hour Temp
(f)
RH
(%)
Solar Rad.
(MJ/m2)
Rainfall
(in)
Wind
(mph)
4/14/2017 12:00 AM 65 76 0 0 3.55
4/14/2017 1:00 AM 66 75 0 0 5.33
4/14/2017 2:00 AM 64 78 0 0 4.46
4/14/2017 3:00 AM 62 81 0 0 3.06
4/14/2017 4:00 AM 62 84 0 0 4.75
4/14/2017 5:00 AM 61 85 0 0 4.31
4/14/2017 6:00 AM 61 87 0 0 2.51
4/14/2017 7:00 AM 62 89 0.1 0 0.89
4/14/2017 8:00 AM 63 86 0.4 0 2.1
4/14/2017 9:00 AM 66 81 0.86 0 5.75
4/14/2017 10:00 AM 69 71 2.11 0 8.87
4/14/2017 11:00 AM 73 54 2.64 0 8.19
4/14/2017 12:00 PM 76 46 2.81 0 11.65
4/14/2017 1:00 PM 77 46 2.83 0 11.01
4/14/2017 2:00 PM 78 42 2.74 0 10.07
4/14/2017 3:00 PM 78 43 2.22 0 9.73
4/14/2017 4:00 PM 79 42 2.05 0 8.79
4/14/2017 5:00 PM 78 42 0.71 0 8.41
4/14/2017 6:00 PM 77 45 0.64 0 7.41
4/14/2017 7:00 PM 74 49 0.14 0 3.88
4/14/2017 8:00 PM 70 65 0 0 2.6
4/14/2017 9:00 PM 68 72 0 0 2.73
4/14/2017 10:00 PM 66 74 0 0 2.55
4/14/2017 11:00 PM 65 76 0 0 1.35
Data Summary 69 66 20.25 0.00 5.58